Lopeno, Texas
Current Conditions -  °F | °C
As of 12:15 AM on Saturday 25 Oct 2014 (Local Time) from KAPY Reporting Station
Clear Clear  
Wind Chill: 69°   Ceiling: Unl
Heat Index: 69°   Visibility: 10mi
Dew Point: 60°   Wind: 3mph
Humidity: 72%   Direction: 160°SSE
Pressure: 30.14"   Gusts: NA
Location:  26.71°N, 99.11°W
Report Text: KAPY 250515Z AUTO 16003KT 10SM CLR 21/15 A3014 RMK AO2 T02080156
Loading
Personal Weather Stations






























Interactive Weather Map
Tropical Storm Tracking
New forecast layout! Learn more

10-Day Weather Forecast

Advertisements
Track Severe Weather on mobile